Terminal Aerodrome Forecast
Issued by NWS Binghamton, NY

Home | Current Version | Previous Version | Text Only | Print | Product List | Glossary On
Versions: 1 2 3 4 5 6 7 8 9 10 11 12 13 14 15 16 17 18
000
FTUS41 KBGM 271100
TAFBGM
TAF
KBGM 271121Z 2712/2812 20005KT P6SM OVC025
      TEMPO 2712/2715 SCT025 BKN035
     FM271500 20010KT P6SM BKN045
     FM280300 21010KT P6SM -SHRA OVC025
     FM280900 28010G20KT P6SM SCT025 BKN035=

USA.gov is the U.S. government's official web portal to all federal, state and local government web resources and services.